CheckWX is a tool to help pilots better visualize weather data.  It is not intended as a substitute for an official pre-flight weather briefing.

04:44:05 UTC

GVBA TAF
Rabil Airport
Rabil, Cape Verde
TAF GVBA 222300Z 2300/2406 35012KT 9999 SCT014

Mar-23@
00:00 UTC

Mar-23 @ 00:00 UTC

Mar-24@
06:00 UTC

Mar-24 @ 06:00 UTC

TAF GVBA 222300Z 2300/2406 35012KT 9999 SCT014
Wind
  • 350° at 12 KTS
Cloud Levels
  • Scattered at 1,400' AGL